Terminal Aerodrome Forecast
Issued by NWS Omaha/Valley, NE

Home | Current Version | Previous Version | Graphics & Text | Print | Product List | Glossary Off
Versions: 1 2 3 4 5 6 7 8 9 10 11 12 13 14 15 16 17 18

000
FTUS43 KOAX 231726 AAC
TAFOFK
TAF AMD
KOFK 231726Z 2317/2418 18011KT P6SM SCT015 BKN100
      TEMPO 2318/2320 BKN010
     FM240800 31007KT P6SM SCT015 BKN250=

USA.gov is the U.S. government's official web portal to all federal, state and local government web resources and services.